createdAt,value
2022-08-11T00:01:50.402Z,2.50
2022-08-11T00:04:18.758Z,2.50
2022-08-11T00:06:46.575Z,2.85
2022-08-11T00:09:16.358Z,2.47
2022-08-11T00:11:46.010Z,2.38
2022-08-11T00:14:15.707Z,2.38
2022-08-11T00:16:43.584Z,2.70
2022-08-11T00:19:11.216Z,2.70
2022-08-11T00:22:04.243Z,2.30
2022-08-11T00:24:52.515Z,2.42
2022-08-11T00:27:20.923Z,2.50
2022-08-11T00:29:54.698Z,2.45
2022-08-11T00:32:22.608Z,2.65
2022-08-11T00:34:50.052Z,2.43
2022-08-11T00:37:19.161Z,2.55
2022-08-11T00:39:50.926Z,2.50
2022-08-11T00:42:37.097Z,2.50
2022-08-11T00:45:22.749Z,2.50
2022-08-11T00:48:01.729Z,2.40
2022-08-11T00:50:31.630Z,2.28
2022-08-11T00:53:12.769Z,2.45
2022-08-11T00:55:56.436Z,2.30
2022-08-11T00:58:35.506Z,2.72
2022-08-11T01:01:20.803Z,2.30
2022-08-11T01:04:06.795Z,2.75
2022-08-11T01:06:52.972Z,2.78
2022-08-11T01:09:38.971Z,2.55
2022-08-11T01:12:25.714Z,2.47
2022-08-11T01:14:59.006Z,2.37
2022-08-11T01:17:35.714Z,2.53
2022-08-11T01:20:48.123Z,2.60
2022-08-11T01:22:49.745Z,2.63
2022-08-11T01:25:32.081Z,3.08
2022-08-11T01:28:30.489Z,2.63
2022-08-11T01:30:59.893Z,2.60
2022-08-11T01:33:33.026Z,2.63
2022-08-11T01:36:20.706Z,2.58
2022-08-11T01:38:47.782Z,2.60
2022-08-11T01:41:14.835Z,2.67
2022-08-11T01:44:12.901Z,2.50
2022-08-11T01:46:45.629Z,2.88
2022-08-11T01:50:05.180Z,2.75
2022-08-11T01:52:09.299Z,2.70
2022-08-11T01:54:50.443Z,2.40
2022-08-11T01:57:29.860Z,2.80
2022-08-11T02:00:17.184Z,2.55
2022-08-11T02:02:56.958Z,2.92
2022-08-11T02:05:27.927Z,2.60
2022-08-11T02:08:13.799Z,2.73
2022-08-11T02:11:24.129Z,2.70
2022-08-11T02:13:55.479Z,2.70
2022-08-11T02:16:42.136Z,2.50
2022-08-11T02:19:27.979Z,2.95
2022-08-11T02:22:25.246Z,2.70
2022-08-11T02:25:01.292Z,2.75
2022-08-11T02:27:35.351Z,2.90
2022-08-11T02:30:07.504Z,2.50
2022-08-11T02:33:00.871Z,2.80
2022-08-11T02:35:36.666Z,2.80
2022-08-11T02:38:09.393Z,2.60
2022-08-11T02:40:51.048Z,2.85
2022-08-11T02:43:28.576Z,2.83
2022-08-11T02:46:01.669Z,2.75
2022-08-11T02:48:56.367Z,2.80
2022-08-11T02:51:43.731Z,3.17
2022-08-11T02:54:26.020Z,2.78
2022-08-11T02:57:13.830Z,2.95
2022-08-11T02:59:52.291Z,3.80
2022-08-11T03:02:42.404Z,2.77
2022-08-11T03:05:13.605Z,3.20
2022-08-11T03:07:40.659Z,3.30
2022-08-11T03:10:24.367Z,3.17
2022-08-11T03:13:28.112Z,3.38
2022-08-11T03:16:40.275Z,3.20
2022-08-11T03:19:10.431Z,3.00
2022-08-11T03:22:01.577Z,3.65
2022-08-11T03:24:49.295Z,3.30
2022-08-11T03:27:25.386Z,3.55
2022-08-11T03:30:03.617Z,3.37
2022-08-11T03:32:37.112Z,3.30
2022-08-11T03:35:05.915Z,3.75
2022-08-11T03:37:53.402Z,3.47
2022-08-11T03:40:40.431Z,3.35
2022-08-11T03:43:26.501Z,3.60
2022-08-11T03:45:59.693Z,3.20
2022-08-11T03:48:37.674Z,3.40
2022-08-11T03:51:25.802Z,3.38
2022-08-11T03:54:12.692Z,3.40
2022-08-11T03:57:03.320Z,3.40
2022-08-11T03:59:59.821Z,3.38
2022-08-11T04:02:35.955Z,3.55
2022-08-11T04:05:19.167Z,3.80
2022-08-11T04:08:11.410Z,3.95
2022-08-11T04:10:58.223Z,3.77
2022-08-11T04:13:45.658Z,3.53
2022-08-11T04:16:31.355Z,4.22
2022-08-11T04:19:19.286Z,3.70
2022-08-11T04:22:08.330Z,3.78
2022-08-11T04:24:49.774Z,3.60
2022-08-11T04:27:23.599Z,4.10
2022-08-11T04:30:09.116Z,3.88
2022-08-11T04:32:57.686Z,3.42
2022-08-11T04:35:27.766Z,3.85
2022-08-11T04:38:13.631Z,4.20
2022-08-11T04:40:59.648Z,3.83
2022-08-11T04:44:02.851Z,4.10
2022-08-11T04:46:56.806Z,4.00
2022-08-11T04:49:42.686Z,4.20
2022-08-11T04:52:38.069Z,3.57
2022-08-11T04:55:39.294Z,4.00
2022-08-11T04:58:31.279Z,3.85
2022-08-11T05:01:37.501Z,3.67
2022-08-11T05:04:05.209Z,3.85
2022-08-11T05:06:32.824Z,3.80
2022-08-11T05:09:09.290Z,4.13
2022-08-11T05:12:01.993Z,3.80
2022-08-11T05:15:20.495Z,4.28
2022-08-11T05:18:21.983Z,3.90
2022-08-11T05:21:13.683Z,3.83
2022-08-11T05:24:00.516Z,3.83
2022-08-11T05:26:49.675Z,4.18
2022-08-11T05:29:55.595Z,3.90
2022-08-11T05:32:42.103Z,3.72
2022-08-11T05:35:10.010Z,3.73
2022-08-11T05:38:05.079Z,3.50
2022-08-11T05:40:53.856Z,3.72
2022-08-11T05:44:20.896Z,3.97
2022-08-11T05:46:58.365Z,3.55
2022-08-11T05:49:44.363Z,4.00
2022-08-11T05:52:34.452Z,3.83
2022-08-11T05:55:28.555Z,4.13
2022-08-11T05:57:56.640Z,3.70
2022-08-11T06:00:26.955Z,3.85
2022-08-11T06:02:55.602Z,3.83
2022-08-11T06:05:23.179Z,4.35
2022-08-11T06:07:54.712Z,3.60
2022-08-11T06:10:33.146Z,3.35
2022-08-11T06:13:03.373Z,3.80
2022-08-11T06:15:31.732Z,3.67
2022-08-11T06:18:01.224Z,3.80
2022-08-11T06:20:32.651Z,3.75
2022-08-11T06:23:03.670Z,4.10
2022-08-11T06:25:31.966Z,3.70
2022-08-11T06:28:00.048Z,3.97
2022-08-11T06:30:35.156Z,3.95
2022-08-11T06:33:04.216Z,3.80
2022-08-11T06:35:50.138Z,3.80
2022-08-11T06:38:26.479Z,3.80
2022-08-11T06:41:18.202Z,3.50
2022-08-11T06:44:06.634Z,3.65
2022-08-11T06:46:38.818Z,3.42
2022-08-11T06:49:27.201Z,3.83
2022-08-11T06:51:56.633Z,3.63
2022-08-11T06:54:47.991Z,3.57
2022-08-11T06:57:34.359Z,3.58
2022-08-11T07:00:20.824Z,3.70
2022-08-11T07:02:56.118Z,3.50
2022-08-11T07:05:38.998Z,3.60
2022-08-11T07:08:34.346Z,3.40
2022-08-11T07:11:21.373Z,3.70
2022-08-11T07:14:09.912Z,3.95
2022-08-11T07:16:40.498Z,3.63
2022-08-11T07:19:27.479Z,3.80
2022-08-11T07:22:15.498Z,3.43
2022-08-11T07:25:13.018Z,3.67
2022-08-11T07:28:03.192Z,3.67
2022-08-11T07:30:30.808Z,3.60
2022-08-11T07:33:00.119Z,4.05
2022-08-11T07:35:34.677Z,3.97
2022-08-11T07:38:20.682Z,3.80
2022-08-11T07:40:50.434Z,3.58
2022-08-11T07:43:17.796Z,3.60
2022-08-11T07:46:05.071Z,3.75
2022-08-11T07:48:53.065Z,3.60
2022-08-11T07:51:39.323Z,3.72
2022-08-11T07:54:16.624Z,3.88
2022-08-11T07:57:07.342Z,4.00
2022-08-11T08:00:00.006Z,4.20
2022-08-11T08:02:49.591Z,3.60
2022-08-11T08:05:36.815Z,3.40
2022-08-11T08:08:22.619Z,3.80
2022-08-11T08:11:09.125Z,3.58
2022-08-11T08:13:55.217Z,3.83
2022-08-11T08:16:41.221Z,3.40
2022-08-11T08:19:08.370Z,4.03
2022-08-11T08:21:35.607Z,3.90
2022-08-11T08:24:03.848Z,3.58
2022-08-11T08:26:51.787Z,3.70
2022-08-11T08:29:39.036Z,4.00
2022-08-11T08:32:07.607Z,4.43
2022-08-11T08:34:35.967Z,4.00
2022-08-11T08:37:15.886Z,4.20
2022-08-11T08:39:51.173Z,4.40
2022-08-11T08:42:21.195Z,4.20
2022-08-11T08:44:51.762Z,4.28
2022-08-11T08:47:42.249Z,3.88
2022-08-11T08:50:16.908Z,5.03
2022-08-11T08:52:48.047Z,4.10
2022-08-11T08:55:19.477Z,4.00
2022-08-11T08:57:48.817Z,4.30
2022-08-11T09:00:19.393Z,4.53
2022-08-11T09:02:49.866Z,4.30
2022-08-11T09:05:18.066Z,4.53
2022-08-11T09:07:47.443Z,4.40
2022-08-11T09:10:17.265Z,4.68
2022-08-11T09:12:44.704Z,4.63
2022-08-11T09:15:12.540Z,4.30
2022-08-11T09:17:41.562Z,4.40
2022-08-11T09:20:10.306Z,4.10
2022-08-11T09:23:35.239Z,3.88
2022-08-11T09:26:04.003Z,4.40
2022-08-11T09:28:31.385Z,4.50
2022-08-11T09:31:01.094Z,4.55
2022-08-11T09:33:29.433Z,4.27
2022-08-11T09:35:57.047Z,4.03
2022-08-11T09:38:48.835Z,4.85
2022-08-11T09:41:16.659Z,4.40
2022-08-11T09:44:04.975Z,3.95
2022-08-11T09:46:35.867Z,4.07
2022-08-11T09:49:05.086Z,4.28
2022-08-11T09:51:33.207Z,4.10
2022-08-11T09:54:03.588Z,4.53
2022-08-11T09:56:50.816Z,4.65
2022-08-11T09:59:20.244Z,3.70
2022-08-11T10:01:49.115Z,4.30
2022-08-11T10:04:17.506Z,3.90
2022-08-11T10:07:05.413Z,4.15
2022-08-11T10:09:44.610Z,4.25
2022-08-11T10:12:13.041Z,4.13
2022-08-11T10:15:05.183Z,3.67
2022-08-11T10:17:33.662Z,3.88
2022-08-11T10:20:04.108Z,3.88
2022-08-11T10:22:52.094Z,4.20
2022-08-11T10:25:38.148Z,3.90
2022-08-11T10:28:29.086Z,4.10
2022-08-11T10:31:13.892Z,4.43
2022-08-11T10:34:00.371Z,4.22
2022-08-11T10:36:28.175Z,4.30
2022-08-11T10:38:56.329Z,4.20
2022-08-11T10:42:07.249Z,4.53
2022-08-11T10:44:29.443Z,4.75
2022-08-11T10:47:15.345Z,4.47
2022-08-11T10:49:42.690Z,4.65
2022-08-11T10:52:28.496Z,4.20
2022-08-11T10:55:14.546Z,4.70
2022-08-11T10:58:04.812Z,4.45
2022-08-11T11:00:32.823Z,4.50
2022-08-11T11:03:23.112Z,4.32
2022-08-11T11:06:28.093Z,4.70
2022-08-11T11:08:52.806Z,4.30
2022-08-11T11:11:21.363Z,4.57
2022-08-11T11:14:09.490Z,4.68
2022-08-11T11:16:50.421Z,4.38
2022-08-11T11:19:20.716Z,5.10
2022-08-11T11:21:49.514Z,4.45
2022-08-11T11:24:39.952Z,4.60
2022-08-11T11:27:15.300Z,4.15
2022-08-11T11:29:45.440Z,3.97
2022-08-11T11:32:39.658Z,3.97
2022-08-11T11:35:09.999Z,3.60
2022-08-11T11:37:37.956Z,3.85
2022-08-11T11:40:13.336Z,3.80
2022-08-11T11:42:43.524Z,4.00
2022-08-11T11:45:14.975Z,3.80
2022-08-11T11:47:52.494Z,3.70
2022-08-11T11:50:32.667Z,4.00
2022-08-11T11:53:01.404Z,3.92
2022-08-11T11:55:28.803Z,3.95
2022-08-11T11:58:18.695Z,3.83
2022-08-11T12:01:05.089Z,4.05
2022-08-11T12:03:32.915Z,4.10
2022-08-11T12:06:00.867Z,3.95
2022-08-11T12:08:28.652Z,4.20
2022-08-11T12:11:15.533Z,4.37
2022-08-11T12:13:43.723Z,4.10
2022-08-11T12:16:33.648Z,4.07
2022-08-11T12:19:00.115Z,4.38
2022-08-11T12:21:28.110Z,3.85
2022-08-11T12:24:15.311Z,3.90
2022-08-11T12:27:16.795Z,4.05
2022-08-11T12:29:36.405Z,4.22
2022-08-11T12:32:09.106Z,4.45
2022-08-11T12:34:37.170Z,3.90
2022-08-11T12:37:13.555Z,3.80
2022-08-11T12:40:15.666Z,4.30
2022-08-11T12:43:21.742Z,4.15
2022-08-11T12:45:51.926Z,4.13
2022-08-11T12:49:00.674Z,4.28
2022-08-11T12:52:11.693Z,4.23
2022-08-11T12:54:39.391Z,3.75
2022-08-11T12:57:37.470Z,4.15
2022-08-11T13:00:26.853Z,4.35
2022-08-11T13:03:13.492Z,4.18
2022-08-11T13:05:45.183Z,4.20
2022-08-11T13:08:14.898Z,4.40
2022-08-11T13:11:00.893Z,4.22
2022-08-11T13:13:54.907Z,3.90
2022-08-11T13:16:15.492Z,4.40
2022-08-11T13:18:43.338Z,4.20
2022-08-11T13:21:11.367Z,4.22
2022-08-11T13:24:01.032Z,4.18
2022-08-11T13:26:46.628Z,3.80
2022-08-11T13:29:20.512Z,3.80
2022-08-11T13:31:47.945Z,4.07
2022-08-11T13:34:16.383Z,4.10
2022-08-11T13:36:43.930Z,3.92
2022-08-11T13:39:13.320Z,4.35
2022-08-11T13:41:42.700Z,4.45
2022-08-11T13:44:12.328Z,3.97
2022-08-11T13:46:43.100Z,4.43
2022-08-11T13:49:11.982Z,4.10
2022-08-11T13:51:39.949Z,4.20
2022-08-11T13:54:11.586Z,4.07
2022-08-11T13:56:40.519Z,4.00
2022-08-11T13:59:10.963Z,4.15
2022-08-11T14:02:19.352Z,4.57
2022-08-11T14:04:44.248Z,4.63
2022-08-11T14:07:14.516Z,4.43
2022-08-11T14:09:43.207Z,4.37
2022-08-11T14:12:40.827Z,4.40
2022-08-11T14:15:11.424Z,4.28
2022-08-11T14:17:48.222Z,4.00
2022-08-11T14:20:38.997Z,4.72
2022-08-11T14:23:04.603Z,4.40
2022-08-11T14:26:01.261Z,4.60
2022-08-11T14:28:32.156Z,4.43
2022-08-11T14:31:05.297Z,4.30
2022-08-11T14:33:58.309Z,4.35
2022-08-11T14:36:23.123Z,4.10
2022-08-11T14:38:51.554Z,4.40
2022-08-11T14:41:37.731Z,4.38
2022-08-11T14:44:44.674Z,4.18
2022-08-11T14:47:24.715Z,4.05
2022-08-11T14:50:06.507Z,4.17
2022-08-11T14:52:38.275Z,4.00
2022-08-11T14:55:24.812Z,3.85
2022-08-11T14:57:56.483Z,4.32
2022-08-11T15:00:33.004Z,4.07
2022-08-11T15:03:11.935Z,4.30
2022-08-11T15:05:54.316Z,4.13
2022-08-11T15:08:45.727Z,4.43
2022-08-11T15:11:32.521Z,4.00
2022-08-11T15:14:00.897Z,4.18
2022-08-11T15:16:46.985Z,3.97
2022-08-11T15:19:15.518Z,3.83
2022-08-11T15:22:01.597Z,4.28
2022-08-11T15:24:30.665Z,4.03
2022-08-11T15:27:18.655Z,4.80
2022-08-11T15:30:05.980Z,4.00
2022-08-11T15:32:52.962Z,3.92
2022-08-11T15:35:39.469Z,4.72
2022-08-11T15:38:07.675Z,4.15
2022-08-11T15:40:56.258Z,3.88
2022-08-11T15:43:45.712Z,3.57
2022-08-11T15:46:15.504Z,3.67
2022-08-11T15:48:46.216Z,4.10
2022-08-11T15:51:17.270Z,3.80
2022-08-11T15:53:56.881Z,3.85
2022-08-11T15:56:26.066Z,3.87
2022-08-11T15:59:42.063Z,3.70
2022-08-11T16:02:19.907Z,3.90
2022-08-11T16:04:47.875Z,3.95
2022-08-11T16:07:24.630Z,3.90
2022-08-11T16:10:09.421Z,3.43
2022-08-11T16:13:05.940Z,3.55
2022-08-11T16:16:06.641Z,4.05
2022-08-11T16:18:59.779Z,4.20
2022-08-11T16:21:35.019Z,3.92
2022-08-11T16:24:05.495Z,4.73
2022-08-11T16:27:08.862Z,4.30
2022-08-11T16:29:21.523Z,4.93
2022-08-11T16:32:09.371Z,4.03
2022-08-11T16:34:56.466Z,12.32
2022-08-11T16:37:43.164Z,5.40
2022-08-11T16:40:11.680Z,3.55
2022-08-11T16:43:08.792Z,13.05
2022-08-11T16:45:58.231Z,4.13
2022-08-11T16:48:33.480Z,3.90
2022-08-11T16:51:05.646Z,4.00
2022-08-11T16:54:03.359Z,3.50
2022-08-11T16:56:21.888Z,4.22
2022-08-11T16:59:13.610Z,3.63
2022-08-11T17:01:50.016Z,4.13
2022-08-11T17:04:54.666Z,3.70
2022-08-11T17:07:43.177Z,3.90
2022-08-11T17:10:52.582Z,3.72
2022-08-11T17:13:23.757Z,3.80
2022-08-11T17:16:07.244Z,3.63
2022-08-11T17:18:46.641Z,3.87
2022-08-11T17:21:23.355Z,3.78
2022-08-11T17:24:02.751Z,3.80
2022-08-11T17:26:57.086Z,4.00
2022-08-11T17:29:25.697Z,3.67
2022-08-11T17:32:12.501Z,4.50
2022-08-11T17:34:59.652Z,3.33
2022-08-11T17:37:27.688Z,3.15
2022-08-11T17:39:56.021Z,3.42
2022-08-11T17:42:46.487Z,3.13
2022-08-11T17:45:32.435Z,3.13
2022-08-11T17:48:19.933Z,2.92
2022-08-11T17:50:48.847Z,3.30
2022-08-11T17:53:35.069Z,3.40
2022-08-11T17:56:22.122Z,3.35
2022-08-11T17:59:10.096Z,3.07
2022-08-11T18:01:39.383Z,3.10
2022-08-11T18:04:10.113Z,3.38
2022-08-11T18:06:38.166Z,2.72
2022-08-11T18:09:25.067Z,3.10
2022-08-11T18:12:12.710Z,2.70
2022-08-11T18:14:59.930Z,3.08
2022-08-11T18:17:46.024Z,3.03
2022-08-11T18:20:31.907Z,3.03
2022-08-11T18:23:18.855Z,2.70
2022-08-11T18:26:07.631Z,3.10
2022-08-11T18:28:57.792Z,2.92
2022-08-11T18:31:44.759Z,2.80
2022-08-11T18:34:34.075Z,2.90
2022-08-11T18:37:29.693Z,2.80
2022-08-11T18:40:36.058Z,2.70
2022-08-11T18:43:26.966Z,2.60
2022-08-11T18:46:16.552Z,2.53
2022-08-11T18:49:08.735Z,2.60
2022-08-11T18:51:58.941Z,2.75
2022-08-11T18:54:48.816Z,2.50
2022-08-11T18:57:54.187Z,2.55
2022-08-11T19:00:41.169Z,2.80
2022-08-11T19:03:27.904Z,2.67
2022-08-11T19:06:39.347Z,2.70
2022-08-11T19:09:22.691Z,2.73
2022-08-11T19:12:08.779Z,2.45
2022-08-11T19:14:54.624Z,2.83
2022-08-11T19:17:44.141Z,2.45
2022-08-11T19:20:33.259Z,2.60
2022-08-11T19:23:19.536Z,2.20
2022-08-11T19:26:06.880Z,2.58
2022-08-11T19:28:53.992Z,2.67
2022-08-11T19:31:44.353Z,2.90
2022-08-11T19:34:36.634Z,2.58
2022-08-11T19:37:25.246Z,2.47
2022-08-11T19:40:16.274Z,2.15
2022-08-11T19:43:02.661Z,2.90
2022-08-11T19:45:52.270Z,2.58
2022-08-11T19:48:39.689Z,2.50
2022-08-11T19:51:25.550Z,2.70
2022-08-11T19:54:12.273Z,2.63
2022-08-11T19:56:58.863Z,2.95
2022-08-11T19:59:45.221Z,3.00
2022-08-11T20:02:31.470Z,2.45
2022-08-11T20:05:17.317Z,2.80
2022-08-11T20:08:03.170Z,2.75
2022-08-11T20:10:50.312Z,3.13
2022-08-11T20:13:36.874Z,2.60
2022-08-11T20:16:28.831Z,2.80
2022-08-11T20:19:15.339Z,2.33
2022-08-11T20:22:05.936Z,2.60
2022-08-11T20:24:56.623Z,2.50
2022-08-11T20:27:43.201Z,2.70
2022-08-11T20:30:29.265Z,2.47
2022-08-11T20:33:15.865Z,2.50
2022-08-11T20:36:02.040Z,2.60
2022-08-11T20:38:55.728Z,2.80
2022-08-11T20:41:58.713Z,2.63
2022-08-11T20:44:46.447Z,2.60
2022-08-11T20:47:33.646Z,2.50
2022-08-11T20:50:39.746Z,2.67
2022-08-11T20:53:25.909Z,3.15
2022-08-11T20:56:13.783Z,3.05
2022-08-11T20:59:18.456Z,2.70
2022-08-11T21:02:09.929Z,2.90
2022-08-11T21:04:57.710Z,2.70
2022-08-11T21:07:55.500Z,2.83
2022-08-11T21:13:54.546Z,3.10
2022-08-11T21:16:52.512Z,2.60
2022-08-11T21:20:06.615Z,2.78
2022-08-11T21:22:59.350Z,2.65
2022-08-11T21:25:53.992Z,2.88
2022-08-11T21:28:41.699Z,3.00
2022-08-11T21:31:28.288Z,2.40
2022-08-11T21:34:14.390Z,2.80
2022-08-11T21:37:01.504Z,2.60
2022-08-11T21:39:47.426Z,2.72
2022-08-11T21:42:34.002Z,2.65
2022-08-11T21:45:20.340Z,2.57
2022-08-11T21:48:06.278Z,2.47
2022-08-11T21:50:52.221Z,2.60
2022-08-11T21:53:38.754Z,2.53
2022-08-11T21:56:27.476Z,2.50
2022-08-11T21:59:13.654Z,2.33
2022-08-11T22:01:59.727Z,2.40
2022-08-11T22:04:45.513Z,2.40
2022-08-11T22:07:31.655Z,2.60
2022-08-11T22:10:37.663Z,2.60
2022-08-11T22:13:28.383Z,2.20
2022-08-11T22:16:14.343Z,2.50
2022-08-11T22:19:00.323Z,2.45
2022-08-11T22:22:01.508Z,2.63
2022-08-11T22:24:51.146Z,2.70
2022-08-11T22:27:37.117Z,2.60
2022-08-11T22:30:24.790Z,2.72
2022-08-11T22:33:10.813Z,2.30
2022-08-11T22:35:58.182Z,2.42
2022-08-11T22:38:45.221Z,2.63
2022-08-11T22:41:31.254Z,2.47
2022-08-11T22:44:17.310Z,2.78
2022-08-11T22:47:03.942Z,2.83
2022-08-11T22:49:57.580Z,2.70
2022-08-11T22:52:44.819Z,2.88
2022-08-11T22:55:30.678Z,2.73
2022-08-11T22:58:16.940Z,2.50
2022-08-11T23:01:03.658Z,2.55
2022-08-11T23:03:50.927Z,2.78
2022-08-11T23:06:38.050Z,2.70
2022-08-11T23:09:24.983Z,2.47
2022-08-11T23:12:10.937Z,2.58
2022-08-11T23:14:58.644Z,2.67
2022-08-11T23:17:45.878Z,2.40
2022-08-11T23:20:46.928Z,2.60
2022-08-11T23:23:39.785Z,2.33
2022-08-11T23:26:25.842Z,2.67
2022-08-11T23:29:14.920Z,2.47
2022-08-11T23:32:01.067Z,2.50
2022-08-11T23:35:37.015Z,2.58
2022-08-11T23:38:01.629Z,2.80
2022-08-11T23:40:47.472Z,2.42
2022-08-11T23:43:40.139Z,2.70
2022-08-11T23:46:26.054Z,2.53
2022-08-11T23:49:23.216Z,2.97
2022-08-11T23:52:09.302Z,2.50
2022-08-11T23:54:55.349Z,2.20
2022-08-11T23:57:47.919Z,3.08
